Pekin, Illinois
Current Conditions -  °F | °C
As of 2:54 AM on Saturday 22 Nov 2014 (Local Time) from KPIA Reporting Station
Haze Haze  
Wind Chill: 30°   Ceiling: 1100
Heat Index: 37°   Visibility: 5mi
Dew Point: 33°   Wind: 9mph
Humidity: 86%   Direction: 180°S
Pressure: 30.11"   Gusts: NA
Location:  40.57°N, 89.64°W
Report Text: KPIA 220854Z 18008KT 5SM BR OVC011 03/01 A3011 RMK AO2 SLP202 60000 I3001 T00280006 56019
Loading
Personal Weather Stations






























Interactive Weather Map New forecast layout! Learn more

10-Day Weather Forecast

Advertisements
Track Severe Weather on mobile